Observation data for McLean on 05/15/2018      Previous  Date  Next       Current Mesonet Observations  Soil Data  Daily Summary Page  Observations in Plain Language
KMCS 150500Z 10005KT 17/11 A2991 RMK A01 T01690114  RH  073%=      5-min Rain = 0
KMCS 150505Z 11005KT 17/12 A2991 RMK A01 T01670115  RH  074%=      5-min Rain = 0
KMCS 150510Z 12004KT 17/12 A2991 RMK A01 T01660115  RH  074%=      5-min Rain = 0
KMCS 150515Z 14004KT 17/12 A2991 RMK A01 T01650115  RH  075%=      5-min Rain = 0
KMCS 150520Z 13004KT 16/12 A299 RMK A01 T01640116  RH  076%=      5-min Rain = 0
KMCS 150525Z 13003KT 16/12 A2991 RMK A01 T01630116  RH  076%=      5-min Rain = 0
KMCS 150530Z 14004KT 16/12 A2991 RMK A01 T01620116  RH  077%=      5-min Rain = 0
KMCS 150535Z 17003KT 16/12 A2991 RMK A01 T01620119  RH  078%=      5-min Rain = 0
KMCS 150540Z 16003KT 16/12 A2991 RMK A01 T01610117  RH  078%=      5-min Rain = 0
KMCS 150545Z 14002KT 16/12 A2992 RMK A01 T01600117  RH  078%=      5-min Rain = 0
KMCS 150550Z 13003KT 16/12 A2992 RMK A01 T01600117  RH  079%=      5-min Rain = 0
KMCS 150555Z 11004KT 16/12 A2992 RMK A01 T01590118  RH  079%=      5-min Rain = 0
KMCS 150600Z 12005KT 16/12 A2992 RMK A01 T01570118  RH  080%=      5-min Rain = 0
KMCS 150605Z 13005KT 16/12 A2993 RMK A01 T01580118  RH  080%=      5-min Rain = 0
KMCS 150610Z 13006KT 16/12 A2993 RMK A01 T01590118  RH  080%=      5-min Rain = 0
KMCS 150615Z 13007KT 16/12 A2993 RMK A01 T01570119  RH  081%=      5-min Rain = 0
KMCS 150620Z 14007KT 16/12 A2992 RMK A01 T01590120  RH  081%=      5-min Rain = 0
KMCS 150625Z 15007KT 16/12 A2992 RMK A01 T01620119  RH  079%=      5-min Rain = 0
KMCS 150630Z 15007KT 16/12 A2992 RMK A01 T01630117  RH  077%=      5-min Rain = 0
KMCS 150635Z 15008KT 16/12 A2992 RMK A01 T01620115  RH  076%=      5-min Rain = 0
KMCS 150640Z 16009KT 16/11 A2993 RMK A01 T01610112  RH  076%=      5-min Rain = 0
KMCS 150645Z 16010KT 16/11 A2993 RMK A01 T01620110  RH  074%=      5-min Rain = 0
KMCS 150650Z 17010G15KT 17/11 A2993 RMK A01 T01700109  RH  070%=      5-min Rain = 0
KMCS 150655Z 18010KT 17/11 A2993 RMK A01 T01720110  RH  070%=      5-min Rain = 0
KMCS 150700Z 17009KT 17/11 A2993 RMK A01 T01700111  RH  071%=      5-min Rain = 0
KMCS 150705Z 17008KT 17/11 A2993 RMK A01 T01690112  RH  072%=      5-min Rain = 0
KMCS 150710Z 18009KT 17/11 A2993 RMK A01 T01670112  RH  073%=      5-min Rain = 0
KMCS 150715Z 19009KT 16/11 A2992 RMK A01 T01640114  RH  075%=      5-min Rain = 0
KMCS 150720Z 18009KT 16/11 A2992 RMK A01 T01620114  RH  076%=      5-min Rain = 0
KMCS 150725Z 18009KT 16/11 A2992 RMK A01 T01600114  RH  076%=      5-min Rain = 0
KMCS 150730Z 18008KT 16/11 A2992 RMK A01 T01600114  RH  077%=      5-min Rain = 0
KMCS 150735Z 18008KT 16/11 A2992 RMK A01 T01580114  RH  078%=      5-min Rain = 0
KMCS 150740Z 18008KT 16/12 A2991 RMK A01 T01560115  RH  079%=      5-min Rain = 0
KMCS 150745Z 18008KT 16/12 A2992 RMK A01 T01560115  RH  080%=      5-min Rain = 0
KMCS 150750Z 19007KT 15/12 A2992 RMK A01 T01540116  RH  081%=      5-min Rain = 0
KMCS 150755Z 19007KT 15/12 A2991 RMK A01 T01520116  RH  082%=      5-min Rain = 0
KMCS 150800Z 19007KT 15/12 A2991 RMK A01 T01510117  RH  083%=      5-min Rain = 0
KMCS 150805Z 19007KT 15/12 A2992 RMK A01 T01510117  RH  083%=      5-min Rain = 0
KMCS 150810Z 18006KT 15/12 A2992 RMK A01 T01520116  RH  082%=      5-min Rain = 0
KMCS 150815Z 18006KT 15/12 A2992 RMK A01 T01520116  RH  082%=      5-min Rain = 0
KMCS 150820Z 19007KT 15/12 A2992 RMK A01 T01530116  RH  081%=      5-min Rain = 0
KMCS 150825Z 19008KT 15/12 A2992 RMK A01 T01530116  RH  081%=      5-min Rain = 0
KMCS 150830Z 19007KT 15/12 A2992 RMK A01 T01530116  RH  081%=      5-min Rain = 0
KMCS 150835Z 19007KT 15/12 A2993 RMK A01 T01530117  RH  082%=      5-min Rain = 0
KMCS 150840Z 19005KT 15/12 A2993 RMK A01 T01540118  RH  082%=      5-min Rain = 0
KMCS 150845Z 18003KT 16/12 A2994 RMK A01 T01560118  RH  081%=      5-min Rain = 0
KMCS 150850Z 06007G14KT 16/12 A2995 RMK A01 T01560117  RH  080%=      5-min Rain = 0
KMCS 150855Z 04011G16KT 15/12 A2995 RMK A01 T01540116  RH  081%=      5-min Rain = 0
KMCS 150900Z 04009G14KT 16/12 A2995 RMK A01 T01590115  RH  078%=      5-min Rain = 0
KMCS 150905Z 08005KT 17/12 A2995 RMK A01 T01680115  RH  074%=      5-min Rain = 0
KMCS 150910Z 08007KT 17/12 A2995 RMK A01 T01740115  RH  071%=      5-min Rain = 0
KMCS 150915Z 05010G16KT 17/12 A2995 RMK A01 T01700115  RH  072%=      5-min Rain = 0
KMCS 150920Z 04009KT 16/12 A2995 RMK A01 T01620115  RH  077%=      5-min Rain = 0
KMCS 150925Z 06007KT 16/12 A2995 RMK A01 T01590115  RH  078%=      5-min Rain = 0
KMCS 150930Z 08005KT 16/12 A2994 RMK A01 T01600115  RH  077%=      5-min Rain = 0
KMCS 150935Z 06007KT 16/12 A2994 RMK A01 T01600115  RH  077%=      5-min Rain = 0
KMCS 150940Z 05009KT 16/12 A2994 RMK A01 T01580115  RH  078%=      5-min Rain = 0
KMCS 150945Z 06007KT 16/11 A2994 RMK A01 T01570114  RH  079%=      5-min Rain = 0
KMCS 150950Z 11004KT 16/11 A2994 RMK A01 T01570114  RH  078%=      5-min Rain = 0
KMCS 150955Z 10004KT 16/11 A2994 RMK A01 T01570113  RH  078%=      5-min Rain = 0
KMCS 151000Z 06008KT 15/11 A2994 RMK A01 T01540114  RH  080%=      5-min Rain = 0
KMCS 151005Z 06009KT 15/11 A2994 RMK A01 T01520114  RH  081%=      5-min Rain = 0
KMCS 151010Z 06007KT 15/11 A2994 RMK A01 T01520114  RH  081%=      5-min Rain = 0
KMCS 151015Z 08006KT 15/11 A2994 RMK A01 T01540113  RH  080%=      5-min Rain = 0
KMCS 151020Z 07008KT 16/11 A2994 RMK A01 T01550113  RH  078%=      5-min Rain = 0
KMCS 151025Z 07009KT 16/11 A2995 RMK A01 T01560112  RH  078%=      5-min Rain = 0
KMCS 151030Z 06008KT 16/11 A2995 RMK A01 T01550113  RH  078%=      5-min Rain = 0
KMCS 151035Z 06009KT 16/11 A2995 RMK A01 T01550112  RH  078%=      5-min Rain = 0
KMCS 151040Z 07009KT 16/11 A2995 RMK A01 T01560111  RH  077%=      5-min Rain = 0
KMCS 151045Z 07007KT 16/11 A2995 RMK A01 T01580110  RH  076%=      5-min Rain = 0
KMCS 151050Z 06008KT 16/11 A2995 RMK A01 T01560111  RH  077%=      5-min Rain = 0
KMCS 151055Z 06009KT 16/11 A2995 RMK A01 T01550110  RH  077%=      5-min Rain = 0
KMCS 151100Z 06008KT 15/11 A2995 RMK A01 T01540110  RH  078%=      5-min Rain = 0
KMCS 151105Z 06008KT 15/11 A2996 RMK A01 T01540110  RH  078%=      5-min Rain = 0
KMCS 151110Z 06008KT 15/11 A2995 RMK A01 T01530111  RH  079%=      5-min Rain = 0
KMCS 151115Z 06008KT 15/11 A2995 RMK A01 T01520111  RH  079%=      5-min Rain = 0
KMCS 151120Z 06008KT 15/11 A2996 RMK A01 T01520111  RH  079%=      5-min Rain = 0
KMCS 151125Z 05009KT 15/11 A2996 RMK A01 T01510111  RH  080%=      5-min Rain = 0
KMCS 151130Z 05008KT 15/11 A2996 RMK A01 T01520111  RH  079%=      5-min Rain = 0
KMCS 151135Z 07008KT 15/11 A2996 RMK A01 T01530110  RH  078%=      5-min Rain = 0
KMCS 151140Z 06009KT 15/11 A2996 RMK A01 T01540110  RH  078%=      5-min Rain = 0
KMCS 151145Z 06009KT 15/11 A2997 RMK A01 T01520111  RH  079%=      5-min Rain = 0
KMCS 151150Z 06009KT 15/11 A2997 RMK A01 T01520111  RH  079%=      5-min Rain = 0
KMCS 151155Z 05009KT 15/11 A2998 RMK A01 T01520111  RH  079%=      5-min Rain = 0
KMCS 151200Z 05009KT 15/11 A2998 RMK A01 T01510111  RH  080%=      5-min Rain = 0
KMCS 151205Z 05009KT 15/11 A2999 RMK A01 T01540112  RH  079%=      5-min Rain = 0
KMCS 151210Z 03007KT 16/11 A2999 RMK A01 T01550113  RH  079%=      5-min Rain = 0
KMCS 151215Z 04006KT 16/11 A30 RMK A01 T01560114  RH  079%=      5-min Rain = 0
KMCS 151220Z 04008KT 16/12 A30 RMK A01 T01570115  RH  079%=      5-min Rain = 0
KMCS 151225Z 03008KT 16/12 A3001 RMK A01 T01580116  RH  079%=      5-min Rain = 0
KMCS 151230Z 02007KT 16/12 A3002 RMK A01 T01590117  RH  079%=      5-min Rain = 0
KMCS 151235Z 00008KT 16/12 A3003 RMK A01 T01600118  RH  079%=      5-min Rain = 0
KMCS 151240Z 01007KT 16/12 A3003 RMK A01 T01600119  RH  080%=      5-min Rain = 0
KMCS 151245Z 01009G14KT 16/12 A3003 RMK A01 T01590119  RH  080%=      5-min Rain = 0
KMCS 151250Z 02009G14KT 16/12 A3004 RMK A01 T01590118  RH  080%=      5-min Rain = 0
KMCS 151255Z 03008KT 16/12 A3004 RMK A01 T01600118  RH  079%=      5-min Rain = 0
KMCS 151300Z 04008KT 16/12 A3004 RMK A01 T01610120  RH  079%=      5-min Rain = 0
KMCS 151305Z 04008KT 16/12 A3004 RMK A01 T01630121  RH  079%=      5-min Rain = 0
KMCS 151310Z 05009KT 17/12 A3004 RMK A01 T01660122  RH  078%=      5-min Rain = 0
KMCS 151315Z 05010KT 17/12 A3003 RMK A01 T01690123  RH  077%=      5-min Rain = 0
KMCS 151320Z 06009KT 17/12 A3003 RMK A01 T01710123  RH  077%=      5-min Rain = 0
KMCS 151325Z 06007KT 17/13 A3004 RMK A01 T01730125  RH  076%=      5-min Rain = 0
KMCS 151330Z 05009KT 17/13 A3004 RMK A01 T01730125  RH  076%=      5-min Rain = 0
KMCS 151335Z 05009KT 17/13 A3003 RMK A01 T01740126  RH  077%=      5-min Rain = 0
KMCS 151340Z 06008KT 18/13 A3003 RMK A01 T01770128  RH  076%=      5-min Rain = 0
KMCS 151345Z 05010KT 18/13 A3003 RMK A01 T01790129  RH  075%=      5-min Rain = 0
KMCS 151350Z 04010KT 18/13 A3003 RMK A01 T01790128  RH  075%=      5-min Rain = 0
KMCS 151355Z 05010KT 18/13 A3003 RMK A01 T01800130  RH  075%=      5-min Rain = 0
KMCS 151400Z 05009KT 18/13 A3003 RMK A01 T01820132  RH  075%=      5-min Rain = 0
KMCS 151405Z 06010KT 18/13 A3003 RMK A01 T01830132  RH  075%=      5-min Rain = 0
KMCS 151410Z 06009KT 18/13 A3003 RMK A01 T01830131  RH  075%=      5-min Rain = 0
KMCS 151415Z 07007KT 18/13 A3004 RMK A01 T01830132  RH  075%=      5-min Rain = 0
KMCS 151420Z 06009KT 18/13 A3004 RMK A01 T01840132  RH  074%=      5-min Rain = 0
KMCS 151425Z 07009KT 18/13 A3004 RMK A01 T01840132  RH  074%=      5-min Rain = 0
KMCS 151430Z 06010KT 19/13 A3004 RMK A01 T01850133  RH  075%=      5-min Rain = 0
KMCS 151435Z 06011G16KT 19/13 A3003 RMK A01 T01860133  RH  074%=      5-min Rain = 0
KMCS 151440Z 06013KT 19/13 A3003 RMK A01 T01870133  RH  074%=      5-min Rain = 0
KMCS 151445Z 05010KT 19/14 A3003 RMK A01 T01880136  RH  075%=      5-min Rain = 0
KMCS 151450Z 05011G16KT 19/14 A3003 RMK A01 T01910137  RH  074%=      5-min Rain = 0
KMCS 151455Z 05013KT 19/14 A3003 RMK A01 T01920137  RH  074%=      5-min Rain = 0
KMCS 151500Z 05012G17KT 19/14 A3003 RMK A01 T01920138  RH  074%=      5-min Rain = 0
KMCS 151505Z 05013KT 19/14 A3003 RMK A01 T01910138  RH  075%=      5-min Rain = 0
KMCS 151510Z 05012KT 19/14 A3004 RMK A01 T01920140  RH  075%=      5-min Rain = 0
KMCS 151515Z 05012G17KT 20/14 A3004 RMK A01 T01960142  RH  074%=      5-min Rain = 0
KMCS 151520Z 06012G17KT 20/14 A3004 RMK A01 T01950141  RH  074%=      5-min Rain = 0
KMCS 151525Z 06013KT 19/14 A3004 RMK A01 T01920140  RH  075%=      5-min Rain = 0
KMCS 151530Z 06013G18KT 19/14 A3005 RMK A01 T01900140  RH  076%=      5-min Rain = 0
KMCS 151535Z 06014KT 19/14 A3005 RMK A01 T01910141  RH  076%=      5-min Rain = 0
KMCS 151540Z 06014KT 19/14 A3005 RMK A01 T01910142  RH  076%=      5-min Rain = 0
KMCS 151545Z 05014G20KT 19/14 A3005 RMK A01 T01900143  RH  078%=      5-min Rain = 0
KMCS 151550Z 07013KT 19/15 A3005 RMK A01 T01910145  RH  078%=      5-min Rain = 0
KMCS 151555Z 07012G18KT 19/15 A3005 RMK A01 T01910145  RH  078%=      5-min Rain = 0
KMCS 151600Z 06013G19KT 19/15 A3006 RMK A01 T01920145  RH  078%=      5-min Rain = 0
KMCS 151605Z 06013G18KT 19/15 A3006 RMK A01 T01920145  RH  078%=      5-min Rain = 0
KMCS 151610Z 07012KT 19/15 A3006 RMK A01 T01920147  RH  079%=      5-min Rain = 0
KMCS 151615Z 07011G17KT 19/15 A3006 RMK A01 T01910149  RH  080%=      5-min Rain = 0
KMCS 151620Z 06013KT 19/15 A3006 RMK A01 T01910149  RH  080%=      5-min Rain = 0
KMCS 151625Z 06012G17KT 19/15 A3006 RMK A01 T01900151  RH  082%=      5-min Rain = 0
KMCS 151630Z 06011KT 19/15 A3006 RMK A01 T01880153  RH  084%=      5-min Rain = 0
KMCS 151635Z 06011KT 19/15 A3006 RMK A01 T01890153  RH  083%=      5-min Rain = 0
KMCS 151640Z 06012G17KT 19/15 A3006 RMK A01 T01890152  RH  083%=      5-min Rain = 0
KMCS 151645Z 08010KT 19/15 A3007 RMK A01 T01870153  RH  084%=      5-min Rain = 0
KMCS 151650Z 07011G17KT 19/15 A3007 RMK A01 T01870151  RH  083%=      5-min Rain = 0
KMCS 151655Z 07013G19KT 19/15 A3007 RMK A01 T01880149  RH  082%=      5-min Rain = 0
KMCS 151700Z 08011G19KT 19/15 A3007 RMK A01 T01880151  RH  083%=      5-min Rain = 0
KMCS 151705Z 08012G17KT 19/15 A3007 RMK A01 T01880151  RH  083%=      5-min Rain = 0
KMCS 151710Z 08011G17KT 19/15 A3007 RMK A01 T01910152  RH  082%=      5-min Rain = 0
KMCS 151715Z 07012G17KT 19/15 A3006 RMK A01 T01920150  RH  080%=      5-min Rain = 0
KMCS 151720Z 08011G17KT 19/15 A3006 RMK A01 T01930151  RH  080%=      5-min Rain = 0
KMCS 151725Z 09012G17KT 19/15 A3006 RMK A01 T01930153  RH  081%=      5-min Rain = 0
KMCS 151730Z 08011G17KT 20/16 A3006 RMK A01 T01980155  RH  080%=      5-min Rain = 0
KMCS 151735Z 08010G16KT 20/16 A3006 RMK A01 T02030157  RH  078%=      5-min Rain = 0
KMCS 151740Z 09012G17KT 21/16 A3006 RMK A01 T02060157  RH  077%=      5-min Rain = 0
KMCS 151745Z 09011G16KT 21/16 A3006 RMK A01 T02060157  RH  077%=      5-min Rain = 0
KMCS 151750Z 09009KT 21/16 A3006 RMK A01 T02100160  RH  077%=      5-min Rain = 0
KMCS 151755Z 08011G17KT 21/16 A3006 RMK A01 T02090156  RH  075%=      5-min Rain = 0
KMCS 151800Z 09010G16KT 21/16 A3006 RMK A01 T02100156  RH  075%=      5-min Rain = 0
KMCS 151805Z 08010G15KT 21/16 A3006 RMK A01 T02090155  RH  075%=      5-min Rain = 0
KMCS 151810Z 07010KT 21/15 A3006 RMK A01 T02080153  RH  074%=      5-min Rain = 0
KMCS 151815Z 08010KT 21/16 A3006 RMK A01 T02090156  RH  075%=      5-min Rain = 0
KMCS 151820Z 08007G13KT 21/16 A3006 RMK A01 T02120160  RH  075%=      5-min Rain = 0
KMCS 151825Z 08009KT 21/16 A3006 RMK A01 T02100156  RH  075%=      5-min Rain = 0
KMCS 151830Z 09007KT 21/16 A3006 RMK A01 T02100158  RH  075%=      5-min Rain = 0
KMCS 151835Z 09009KT 21/16 A3006 RMK A01 T02120158  RH  075%=      5-min Rain = 0
KMCS 151840Z 07010KT 21/16 A3006 RMK A01 T02130157  RH  074%=      5-min Rain = 0
KMCS 151845Z 06009KT 22/16 A3006 RMK A01 T02150158  RH  073%=      5-min Rain = 0
KMCS 151850Z 07008KT 22/16 A3006 RMK A01 T02170159  RH  073%=      5-min Rain = 0
KMCS 151855Z 05008KT 22/16 A3006 RMK A01 T02200159  RH  072%=      5-min Rain = 0
KMCS 151900Z 05008KT 22/16 A3006 RMK A01 T02190158  RH  071%=      5-min Rain = 0
KMCS 151905Z 08007G12KT 22/16 A3006 RMK A01 T02160158  RH  073%=      5-min Rain = 0
KMCS 151910Z 06006KT 22/16 A3005 RMK A01 T02180158  RH  072%=      5-min Rain = 0
KMCS 151915Z 09008G13KT 22/16 A3005 RMK A01 T02230159  RH  070%=      5-min Rain = 0
KMCS 151920Z 09008KT 23/16 A3005 RMK A01 T02250160  RH  070%=      5-min Rain = 0
KMCS 151925Z 10009KT 23/16 A3004 RMK A01 T02250157  RH  069%=      5-min Rain = 0
KMCS 151930Z 10008G13KT 23/16 A3004 RMK A01 T02270160  RH  069%=      5-min Rain = 0
KMCS 151935Z 11007KT 23/16 A3004 RMK A01 T02300159  RH  067%=      5-min Rain = 0
KMCS 151940Z 11007KT 23/16 A3004 RMK A01 T02320157  RH  066%=      5-min Rain = 0
KMCS 151945Z 09006G11KT 23/16 A3004 RMK A01 T02290156  RH  066%=      5-min Rain = 0
KMCS 151950Z 09006KT 23/16 A3004 RMK A01 T02300156  RH  066%=      5-min Rain = 0
KMCS 151955Z 11006KT 23/16 A3004 RMK A01 T02300157  RH  066%=      5-min Rain = 0
KMCS 152000Z 10007KT 23/16 A3004 RMK A01 T02330157  RH  065%=      5-min Rain = 0
KMCS 152005Z 11005G10KT 23/16 A3004 RMK A01 T02320156  RH  065%=      5-min Rain = 0
KMCS 152010Z 09008KT 23/15 A3004 RMK A01 T02290154  RH  065%=      5-min Rain = 0
KMCS 152015Z 10007KT 23/15 A3003 RMK A01 T02280154  RH  066%=      5-min Rain = 0
KMCS 152020Z 10006KT 23/15 A3003 RMK A01 T02310154  RH  065%=      5-min Rain = 0
KMCS 152025Z 12005KT 24/15 A3003 RMK A01 T02360151  RH  062%=      5-min Rain = 0
KMCS 152030Z 10005KT 24/15 A3003 RMK A01 T02360153  RH  062%=      5-min Rain = 0
KMCS 152035Z 11006KT 23/15 A3002 RMK A01 T02340153  RH  063%=      5-min Rain = 0
KMCS 152040Z 10006KT 24/16 A3002 RMK A01 T02390157  RH  063%=      5-min Rain = 0
KMCS 152045Z 12005G10KT 24/16 A3002 RMK A01 T02440155  RH  061%=      5-min Rain = 0
KMCS 152050Z 12004G9KT 24/15 A3002 RMK A01 T02430153  RH  060%=      5-min Rain = 0
KMCS 152055Z 11007KT 24/15 A3001 RMK A01 T02380153  RH  062%=      5-min Rain = 0
KMCS 152100Z 11007KT 24/15 A3001 RMK A01 T02390152  RH  061%=      5-min Rain = 0
KMCS 152105Z 10004G9KT 24/15 A3001 RMK A01 T02440152  RH  059%=      5-min Rain = 0
KMCS 152110Z 10005G10KT 24/16 A30 RMK A01 T02430155  RH  061%=      5-min Rain = 0
KMCS 152115Z 10007KT 25/16 A30 RMK A01 T02460157  RH  060%=      5-min Rain = 0
KMCS 152120Z 10007KT 25/15 A30 RMK A01 T02460154  RH  059%=      5-min Rain = 0
KMCS 152125Z 11007KT 25/15 A30 RMK A01 T02460153  RH  059%=      5-min Rain = 0
KMCS 152130Z 14006KT 25/15 A30 RMK A01 T02500152  RH  057%=      5-min Rain = 0
KMCS 152135Z 14007KT 25/15 A30 RMK A01 T02490152  RH  057%=      5-min Rain = 0
KMCS 152140Z 13007KT 25/15 A2999 RMK A01 T02480149  RH  057%=      5-min Rain = 0
KMCS 152145Z 16008KT 25/15 A2999 RMK A01 T02480148  RH  056%=      5-min Rain = 0
KMCS 152150Z 16007KT 25/15 A2999 RMK A01 T02490149  RH  056%=      5-min Rain = 0
KMCS 152155Z 13005G10KT 25/15 A2999 RMK A01 T02530150  RH  055%=      5-min Rain = 0
KMCS 152200Z 12007KT 25/15 A2998 RMK A01 T02520145  RH  054%=      5-min Rain = 0
KMCS 152205Z 12007G12KT 25/15 A2998 RMK A01 T02510146  RH  054%=      5-min Rain = 0
KMCS 152210Z 15006KT 25/15 A2998 RMK A01 T02530145  RH  053%=      5-min Rain = 0
KMCS 152215Z 14007KT 25/14 A2998 RMK A01 T02530144  RH  053%=      5-min Rain = 0
KMCS 152220Z 18007KT 25/15 A2997 RMK A01 T02540149  RH  055%=      5-min Rain = 0
KMCS 152225Z 16005G11KT 26/15 A2997 RMK A01 T02570151  RH  054%=      5-min Rain = 0
KMCS 152230Z 14008G13KT 26/15 A2997 RMK A01 T02570146  RH  053%=      5-min Rain = 0
KMCS 152235Z 17004G9KT 26/14 A2997 RMK A01 T02570144  RH  052%=      5-min Rain = 0
KMCS 152240Z 18007KT 26/15 A2997 RMK A01 T02600146  RH  052%=      5-min Rain = 0
KMCS 152245Z 16006G11KT 26/15 A2997 RMK A01 T02590145  RH  051%=      5-min Rain = 0
KMCS 152250Z 12006KT 26/15 A2996 RMK A01 T02600153  RH  054%=      5-min Rain = 0
KMCS 152255Z 10007KT 26/15 A2996 RMK A01 T02570151  RH  054%=      5-min Rain = 0
KMCS 152300Z 10007KT 25/15 A2996 RMK A01 T02510153  RH  057%=      5-min Rain = 0
KMCS 152305Z 12005KT 25/15 A2996 RMK A01 T02500151  RH  057%=      5-min Rain = 0
KMCS 152310Z 13005KT 25/15 A2996 RMK A01 T02520147  RH  054%=      5-min Rain = 0
KMCS 152315Z 11003KT 26/15 A2995 RMK A01 T02550149  RH  054%=      5-min Rain = 0
KMCS 152320Z 12005KT 26/15 A2995 RMK A01 T02560148  RH  054%=      5-min Rain = 0
KMCS 152325Z 13005KT 26/15 A2995 RMK A01 T02560149  RH  054%=      5-min Rain = 0
KMCS 152330Z 13004KT 26/15 A2994 RMK A01 T02550147  RH  054%=      5-min Rain = 0
KMCS 152335Z 09002KT 26/15 A2994 RMK A01 T02560147  RH  053%=      5-min Rain = 0
KMCS 152340Z 10004KT 26/15 A2994 RMK A01 T02560148  RH  054%=      5-min Rain = 0
KMCS 152345Z 14004KT 26/14 A2994 RMK A01 T02580143  RH  051%=      5-min Rain = 0
KMCS 152350Z 12004KT 26/14 A2994 RMK A01 T02570140  RH  051%=      5-min Rain = 0
KMCS 152355Z 11001KT 26/14 A2993 RMK A01 T02560142  RH  051%=      5-min Rain = 0
KMCS 160000Z 14003KT 26/14 A2993 RMK A01 T02560142  RH  052%=      5-min Rain = 0
KMCS 160005Z 14005KT 25/15 A2993 RMK A01 T02540145  RH  053%=      5-min Rain = 0
KMCS 160010Z 13003KT 25/15 A2993 RMK A01 T02500145  RH  054%=      5-min Rain = 0
KMCS 160015Z 13003KT 25/15 A2994 RMK A01 T02490146  RH  055%=      5-min Rain = 0
KMCS 160020Z 14004KT 25/15 A2994 RMK A01 T02470147  RH  056%=      5-min Rain = 0
KMCS 160025Z 14004KT 25/15 A2993 RMK A01 T02460147  RH  057%=      5-min Rain = 0
KMCS 160030Z 13005KT 25/15 A2993 RMK A01 T02450149  RH  057%=      5-min Rain = 0
KMCS 160035Z 12005KT 25/15 A2993 RMK A01 T02450150  RH  058%=      5-min Rain = 0
KMCS 160040Z 13007KT 24/15 A2993 RMK A01 T02440150  RH  058%=      5-min Rain = 0
KMCS 160045Z 13006KT 24/15 A2993 RMK A01 T02440150  RH  058%=      5-min Rain = 0
KMCS 160050Z 13006KT 24/15 A2994 RMK A01 T02430150  RH  059%=      5-min Rain = 0
KMCS 160055Z 14005KT 24/15 A2995 RMK A01 T02420150  RH  059%=      5-min Rain = 0
KMCS 160100Z 13004KT 24/15 A2996 RMK A01 T02420151  RH  059%=      5-min Rain = 0
KMCS 160105Z 12004KT 24/15 A2996 RMK A01 T02400152  RH  061%=      5-min Rain = 0
KMCS 160110Z 11004KT 24/15 A2995 RMK A01 T02370153  RH  062%=      5-min Rain = 0
KMCS 160115Z 11004KT 24/15 A2995 RMK A01 T02360153  RH  063%=      5-min Rain = 0
KMCS 160120Z 12003KT 23/15 A2996 RMK A01 T02340154  RH  063%=      5-min Rain = 0
KMCS 160125Z 13004KT 23/15 A2996 RMK A01 T02330152  RH  063%=      5-min Rain = 0
KMCS 160130Z 13003KT 23/15 A2997 RMK A01 T02330153  RH  064%=      5-min Rain = 0
KMCS 160135Z 14003KT 23/15 A2999 RMK A01 T02320152  RH  064%=      5-min Rain = 0
KMCS 160140Z 20002KT 23/16 A30 RMK A01 T02330155  RH  064%=      5-min Rain = 0
KMCS 160145Z 23003KT 23/16 A3001 RMK A01 T02310156  RH  066%=      5-min Rain = 0
KMCS 160150Z 20003KT 23/16 A30 RMK A01 T02300157  RH  067%=      5-min Rain = 0
KMCS 160155Z 18004KT 23/16 A30 RMK A01 T02310155  RH  065%=      5-min Rain = 0
KMCS 160200Z 16004KT 23/16 A30 RMK A01 T02300156  RH  066%=      5-min Rain = 0
KMCS 160205Z 17004KT 23/16 A30 RMK A01 T02290155  RH  066%=      5-min Rain = 0
KMCS 160210Z 19004KT 23/16 A30 RMK A01 T02290156  RH  066%=      5-min Rain = 0
KMCS 160215Z 21003KT 23/16 A30 RMK A01 T02290158  RH  067%=      5-min Rain = 0
KMCS 160220Z 20003KT 23/16 A30 RMK A01 T02270158  RH  068%=      5-min Rain = 0
KMCS 160225Z 18003KT 23/16 A30 RMK A01 T02270158  RH  068%=      5-min Rain = 0
KMCS 160230Z 19004KT 23/16 A30 RMK A01 T02260160  RH  070%=      5-min Rain = 0
KMCS 160235Z 18004KT 22/16 A30 RMK A01 T02240159  RH  070%=      5-min Rain = 0
KMCS 160240Z 18005KT 22/16 A30 RMK A01 T02240160  RH  070%=      5-min Rain = 0
KMCS 160245Z 17006KT 22/16 A30 RMK A01 T02230159  RH  070%=      5-min Rain = 0
KMCS 160250Z 16007KT 22/16 A2999 RMK A01 T02220159  RH  071%=      5-min Rain = 0
KMCS 160255Z 14011KT 22/16 A2996 RMK A01 T02210160  RH  071%=      5-min Rain = 0
KMCS 160300Z 13014G20KT 22/16 A2992 RMK A01 T02210161  RH  072%=      5-min Rain = 0
KMCS 160305Z 12015G21KT 22/16 A2989 RMK A01 T02220162  RH  072%=      5-min Rain = 0
KMCS 160310Z 12011G19KT 22/17 A2991 RMK A01 T02220165  RH  074%=      5-min Rain = 0
KMCS 160315Z 12009G14KT 22/17 A2993 RMK A01 T02210168  RH  075%=      5-min Rain = 0
KMCS 160320Z 11008G14KT 22/17 A2993 RMK A01 T02200168  RH  076%=      5-min Rain = 0
KMCS 160325Z 10010KT 22/17 A2994 RMK A01 T02200167  RH  076%=      5-min Rain = 0
KMCS 160330Z 11010G15KT 22/17 A2994 RMK A01 T02190167  RH  076%=      5-min Rain = 0
KMCS 160335Z 10010G16KT 22/17 A2994 RMK A01 T02170168  RH  077%=      5-min Rain = 0
KMCS 160340Z 10010KT 22/17 A2994 RMK A01 T02160167  RH  077%=      5-min Rain = 0
KMCS 160345Z 10012G19KT 22/17 A2994 RMK A01 T02150166  RH  077%=      5-min Rain = 0
KMCS 160350Z 10011G17KT 22/17 A2994 RMK A01 T02150165  RH  077%=      5-min Rain = 0
KMCS 160355Z 10011KT 21/17 A2995 RMK A01 T02140165  RH  077%=      5-min Rain = 0
KMCS 160400Z 11012KT 21/16 A2996 RMK A01 T02140164  RH  077%=      5-min Rain = 0
KMCS 160405Z 11011G17KT 21/16 A2997 RMK A01 T02140163  RH  076%=      5-min Rain = 0
KMCS 160410Z 12010G15KT 21/16 A2997 RMK A01 T02140163  RH  076%=      5-min Rain = 0
KMCS 160415Z 12010G15KT 21/16 A2998 RMK A01 T02130162  RH  076%=      5-min Rain = 0
KMCS 160420Z 12010G15KT 21/16 A2998 RMK A01 T02120161  RH  076%=      5-min Rain = 0
KMCS 160425Z 12010G16KT 21/16 A2998 RMK A01 T02120160  RH  076%=      5-min Rain = 0
KMCS 160430Z 12008KT 21/16 A2998 RMK A01 T02120159  RH  075%=      5-min Rain = 0
KMCS 160435Z 12009G16KT 21/16 A2999 RMK A01 T02110159  RH  075%=      5-min Rain = 0
KMCS 160440Z 12009G17KT 21/16 A2998 RMK A01 T02110156  RH  075%=      5-min Rain = 0
KMCS 160445Z 12009KT 21/15 A2998 RMK A01 T02100154  RH  073%=      5-min Rain = 0
KMCS 160450Z 12008KT 21/15 A2997 RMK A01 T02100152  RH  073%=      5-min Rain = 0
KMCS 160455Z 13009KT 21/15 A2997 RMK A01 T02090151  RH  073%=      5-min Rain = 0

Page generated in 0.0096 seconds.